Time;durP1;ratioP1;P1;durP2;ratioP2;P2;SDS_P1;SDS_P2;PMS_P1;PMS_P2;Temp;Humidity;BMP_temperature;BMP_pressure;BME280_temperature;BME280_humidity;BME280_pressure;Samples;Min_cycle;Max_cycle;Signal;HPM_P1;HPM_P2
2022/10/23 00:01:41;;;;;;;1.97;1.20;;;;;;;12.82;100.00;96278.38;4998406;28;20210;-85
2022/10/23 00:04:12;;;;;;;1.60;1.30;;;;;;;12.65;100.00;96272.94;4985090;28;20220;-86
2022/10/23 00:06:40;;;;;;;1.30;1.10;;;;;;;12.54;100.00;96281.94;5002753;28;20540;-86
2022/10/23 00:09:09;;;;;;;3.20;1.40;;;;;;;12.25;100.00;96269.53;4989902;28;20224;-84
2022/10/23 00:11:37;;;;;;;1.67;1.50;;;;;;;12.18;100.00;96294.00;4989801;28;20225;-88
2022/10/23 00:14:06;;;;;;;1.33;1.10;;;;;;;12.18;100.00;96293.19;5005420;28;20232;-88
2022/10/23 00:16:34;;;;;;;1.33;1.00;;;;;;;12.17;100.00;96269.88;4990392;28;20208;-85
2022/10/23 00:19:01;;;;;;;3.70;1.20;;;;;;;12.18;100.00;96279.66;4993701;28;20216;-86
2022/10/23 00:21:29;;;;;;;1.93;1.37;;;;;;;12.34;100.00;96289.69;4988095;28;20196;-84
2022/10/23 00:23:57;;;;;;;2.77;1.20;;;;;;;12.27;100.00;96287.13;4988645;28;20271;-86
2022/10/23 00:26:24;;;;;;;2.70;1.10;;;;;;;12.23;100.00;96271.63;4990126;28;20211;-80
2022/10/23 00:28:54;;;;;;;4.00;1.27;;;;;;;12.30;100.00;96273.13;4988640;28;20210;-84
2022/10/23 00:31:22;;;;;;;1.83;1.27;;;;;;;12.24;100.00;96265.16;4982556;28;20236;-86
2022/10/23 00:33:50;;;;;;;4.30;1.37;;;;;;;12.29;100.00;96270.66;4979315;28;20205;-85
2022/10/23 00:36:19;;;;;;;2.00;1.10;;;;;;;12.31;100.00;96284.78;4981464;28;20211;-82
2022/10/23 00:38:49;;;;;;;3.23;1.20;;;;;;;12.29;100.00;96279.59;5019038;28;20202;-86
2022/10/23 00:41:18;;;;;;;3.53;1.30;;;;;;;12.28;100.00;96283.38;4984541;28;20216;-85
2022/10/23 00:43:59;;;;;;;2.60;1.23;;;;;;;12.22;100.00;96278.13;5003307;28;20319;-85
2022/10/23 00:46:26;;;;;;;1.70;1.20;;;;;;;12.31;100.00;96284.78;4988885;28;20563;-84
2022/10/23 00:48:53;;;;;;;1.97;1.40;;;;;;;12.27;100.00;96286.31;5002023;28;20207;-84
2022/10/23 00:51:21;;;;;;;8.03;2.27;;;;;;;12.34;100.00;96290.53;5004672;28;20196;-86
2022/10/23 00:53:54;;;;;;;5.07;1.80;;;;;;;12.36;100.00;96290.28;4992604;28;20287;-81
2022/10/23 00:56:22;;;;;;;3.23;1.57;;;;;;;12.36;100.00;96287.56;4986523;28;20223;-85
2022/10/23 00:58:49;;;;;;;4.23;1.60;;;;;;;12.32;100.00;96289.13;4993733;28;20211;-86
2022/10/23 01:01:19;;;;;;;3.00;1.90;;;;;;;12.36;100.00;96301.09;4987795;28;20299;-86
2022/10/23 01:03:48;;;;;;;3.53;1.60;;;;;;;12.31;100.00;96287.50;5001743;28;20227;-85
2022/10/23 01:06:26;;;;;;;2.70;1.60;;;;;;;12.30;100.00;96291.25;4988819;28;20248;-82
2022/10/23 01:09:01;;;;;;;3.83;1.70;;;;;;;12.29;100.00;96292.31;4990611;28;20204;-85
2022/10/23 01:11:36;;;;;;;2.00;1.50;;;;;;;12.27;100.00;96303.38;5005767;28;20243;-86
2022/10/23 01:14:12;;;;;;;4.13;1.43;;;;;;;12.27;100.00;96297.16;4990582;28;20286;-87
2022/10/23 01:16:45;;;;;;;3.20;1.50;;;;;;;12.30;100.00;96294.78;4986637;28;20304;-84
2022/10/23 01:19:21;;;;;;;1.57;1.37;;;;;;;12.34;100.00;96297.81;4987177;28;20212;-87
2022/10/23 01:21:56;;;;;;;2.17;1.30;;;;;;;12.33;100.00;96298.91;4989122;28;20210;-86
2022/10/23 01:24:45;;;;;;;3.20;1.50;;;;;;;12.27;100.00;96292.56;5002553;28;20223;-86
2022/10/23 01:27:20;;;;;;;4.17;1.60;;;;;;;12.20;100.00;96283.75;5010791;28;20207;-85
2022/10/23 01:29:58;;;;;;;5.67;1.80;;;;;;;12.18;100.00;96287.75;5006541;28;20202;-85
2022/10/23 01:32:37;;;;;;;3.43;1.60;;;;;;;12.19;100.00;96284.81;4994745;28;20299;-84
2022/10/23 01:35:11;;;;;;;3.73;1.47;;;;;;;12.20;100.00;96293.78;4981978;28;20215;-87
2022/10/23 01:37:43;;;;;;;3.97;1.57;;;;;;;12.21;100.00;96282.72;4985647;28;20208;-86
2022/10/23 01:40:17;;;;;;;5.83;2.00;;;;;;;12.23;100.00;96282.47;4987432;28;20259;-85
2022/10/23 01:42:50;;;;;;;3.97;1.83;;;;;;;12.22;100.00;96278.13;5005950;28;20232;-86
2022/10/23 01:45:27;;;;;;;5.03;1.50;;;;;;;12.21;100.00;96281.88;5002944;28;20212;-85
2022/10/23 01:47:57;;;;;;;3.10;1.40;;;;;;;12.15;100.00;96261.19;4988546;28;20212;-84
2022/10/23 01:50:26;;;;;;;5.20;2.60;;;;;;;12.24;100.00;96260.56;4985709;28;20236;-86
2022/10/23 01:53:00;;;;;;;4.07;1.63;;;;;;;12.08;100.00;96256.72;5001298;28;20210;-85
2022/10/23 01:55:27;;;;;;;2.23;1.50;;;;;;;12.11;100.00;96253.56;4987243;28;20239;-84
2022/10/23 01:57:59;;;;;;;3.80;1.30;;;;;;;12.08;100.00;96239.66;5007163;28;20205;-85
2022/10/23 02:00:34;;;;;;;2.17;1.60;;;;;;;12.15;100.00;96231.44;4995910;28;20204;-86
2022/10/23 02:03:03;;;;;;;7.37;1.50;;;;;;;12.12;100.00;96220.03;5010477;28;20238;-86
2022/10/23 02:05:33;;;;;;;3.53;1.40;;;;;;;12.13;100.00;96223.53;5010657;28;20294;-86
2022/10/23 02:08:02;;;;;;;2.23;1.37;;;;;;;12.17;100.00;96215.75;4984651;28;20205;-86
2022/10/23 02:10:37;;;;;;;1.10;1.00;;;;;;;12.11;100.00;96204.84;4988096;28;20315;-88
2022/10/23 02:13:12;;;;;;;4.00;1.30;;;;;;;12.11;100.00;96207.53;4985569;28;20207;-86
2022/10/23 02:15:47;;;;;;;4.30;1.20;;;;;;;12.22;100.00;96208.56;4985499;28;20210;-86
2022/10/23 02:18:27;;;;;;;6.37;1.30;;;;;;;12.20;100.00;96199.03;5008027;28;20206;-86
2022/10/23 02:20:59;;;;;;;4.47;1.43;;;;;;;12.35;100.00;96212.81;4990053;28;20251;-83
2022/10/23 02:23:32;;;;;;;2.67;1.20;;;;;;;12.29;100.00;96211.09;4981176;28;20223;-82
2022/10/23 02:26:04;;;;;;;2.60;1.20;;;;;;;12.25;100.00;96207.25;5003554;28;20547;-84
2022/10/23 02:28:40;;;;;;;3.53;1.20;;;;;;;12.24;100.00;96201.00;4982096;28;20212;-84
2022/10/23 02:31:13;;;;;;;3.53;1.50;;;;;;;12.27;100.00;96194.28;5009490;28;20295;-87
2022/10/23 02:33:41;;;;;;;1.67;1.30;;;;;;;12.24;100.00;96194.78;4985126;28;20303;-86
2022/10/23 02:36:08;;;;;;;2.40;1.20;;;;;;;12.23;100.00;96196.66;4989519;28;20215;-83
2022/10/23 02:38:39;;;;;;;4.00;1.30;;;;;;;12.29;100.00;96208.41;4995156;28;20223;-87
2022/10/23 02:41:39;;;;;;;2.23;1.30;;;;;;;12.20;100.00;96204.44;4996024;28;20208;-84
2022/10/23 02:44:23;;;;;;;1.40;1.20;;;;;;;12.13;100.00;96197.31;4983084;28;20231;-84
2022/10/23 02:46:59;;;;;;;5.10;1.60;;;;;;;12.05;100.00;96199.59;4988116;28;20226;-86
2022/10/23 02:49:34;;;;;;;8.27;2.37;;;;;;;12.06;100.00;96193.94;4987625;28;20208;-85
2022/10/23 02:52:10;;;;;;;1.40;1.30;;;;;;;12.02;100.00;96202.75;4995216;28;20238;-86
2022/10/23 02:54:52;;;;;;;1.60;1.40;;;;;;;12.01;100.00;96203.81;4986646;28;20196;-85
2022/10/23 02:57:27;;;;;;;1.90;1.50;;;;;;;12.02;100.00;96192.75;4985730;28;20227;-86
2022/10/23 03:00:03;;;;;;;1.30;1.20;;;;;;;12.09;100.00;96184.47;5002960;28;20200;-86
2022/10/23 03:02:36;;;;;;;4.03;0.90;;;;;;;12.55;100.00;96179.84;4984429;28;20290;-81
2022/10/23 03:05:07;;;;;;;1.97;0.83;;;;;;;13.93;100.00;96176.88;5003143;28;20235;-83
2022/10/23 03:07:35;;;;;;;0.90;0.90;;;;;;;14.93;100.00;96179.91;4996965;28;20216;-86
2022/10/23 03:10:08;;;;;;;2.60;1.00;;;;;;;15.62;100.00;96172.44;5002969;28;20224;-85
2022/10/23 03:12:37;;;;;;;0.83;0.80;;;;;;;16.46;94.27;96166.66;4984240;28;20200;-86
2022/10/23 03:15:08;;;;;;;1.07;0.87;;;;;;;16.77;91.26;96183.84;4986304;28;20211;-85
2022/10/23 03:17:35;;;;;;;0.70;0.70;;;;;;;16.77;90.13;96155.75;5002653;28;20235;-85
2022/10/23 03:20:03;;;;;;;0.80;0.80;;;;;;;16.97;88.17;96164.75;4983693;28;20211;-84
2022/10/23 03:22:30;;;;;;;1.90;0.90;;;;;;;17.09;85.64;96144.56;4990934;28;20259;-86
2022/10/23 03:24:57;;;;;;;0.97;0.80;;;;;;;17.21;85.24;96154.06;5000470;28;20227;-86
2022/10/23 03:27:24;;;;;;;2.03;1.00;;;;;;;17.25;84.48;96140.69;4988644;28;20211;-86
2022/10/23 03:29:51;;;;;;;1.03;0.80;;;;;;;17.52;82.51;96151.25;4988826;28;20203;-85
2022/10/23 03:32:20;;;;;;;2.23;0.93;;;;;;;17.60;81.45;96153.41;4984544;28;20204;-86
2022/10/23 03:34:47;;;;;;;1.53;0.80;;;;;;;17.63;79.67;96140.00;4983897;28;20206;-85
2022/10/23 03:37:14;;;;;;;1.67;0.90;;;;;;;17.89;78.47;96143.44;4984454;28;20212;-82
2022/10/23 03:39:41;;;;;;;2.23;1.20;;;;;;;17.94;77.12;96137.97;4983507;28;20212;-85
2022/10/23 03:42:09;;;;;;;2.47;0.80;;;;;;;17.95;77.38;96136.84;4990252;28;20206;-85
2022/10/23 03:44:35;;;;;;;1.00;0.90;;;;;;;18.02;76.93;96133.81;5002025;28;20306;-86
2022/10/23 03:47:04;;;;;;;0.87;0.80;;;;;;;17.95;76.66;96112.25;4987707;28;20266;-86
2022/10/23 03:49:32;;;;;;;0.73;0.73;;;;;;;18.11;75.64;96137.59;4986196;28;20246;-85
2022/10/23 03:52:04;;;;;;;1.43;0.87;;;;;;;18.05;76.57;96135.97;5009836;28;20258;-84
2022/10/23 03:54:32;;;;;;;0.80;0.80;;;;;;;18.22;73.84;96144.59;4988433;28;20267;-87
2022/10/23 03:56:59;;;;;;;1.57;0.87;;;;;;;18.35;72.67;96138.53;4988617;28;20262;-85
2022/10/23 03:59:28;;;;;;;1.37;0.77;;;;;;;18.54;71.44;96133.97;4995597;28;20207;-85
2022/10/23 04:01:55;;;;;;;1.07;0.80;;;;;;;18.67;70.01;96139.94;4988987;28;20287;-85
2022/10/23 04:04:25;;;;;;;1.53;0.80;;;;;;;18.44;72.86;96120.41;4987249;28;20256;-86
2022/10/23 04:06:53;;;;;;;1.70;0.90;;;;;;;18.64;69.93;96135.03;5006183;28;20200;-86
2022/10/23 04:09:21;;;;;;;0.93;0.83;;;;;;;18.79;69.58;96130.25;4994601;28;20228;-85
2022/10/23 04:11:48;;;;;;;1.00;0.90;;;;;;;19.20;66.25;96127.94;4991693;28;20215;-86
2022/10/23 04:14:15;;;;;;;0.87;0.87;;;;;;;19.39;65.56;96124.44;4992759;28;20302;-87
2022/10/23 04:16:42;;;;;;;0.75;0.75;;;;;;;19.57;63.40;96110.81;4991598;28;20298;-85
2022/10/23 04:19:09;;;;;;;1.10;0.83;;;;;;;19.81;63.54;96121.75;5007865;28;20215;-81
2022/10/23 04:21:36;;;;;;;2.13;0.93;;;;;;;19.40;65.47;96126.06;5007959;28;20218;-81
2022/10/23 04:24:06;;;;;;;1.57;0.90;;;;;;;19.30;67.18;96131.66;5008659;28;20228;-81
2022/10/23 04:26:33;;;;;;;1.13;1.00;;;;;;;18.72;69.43;96109.78;4987234;28;20238;-81
2022/10/23 04:29:00;;;;;;;1.10;1.00;;;;;;;18.99;66.15;96109.25;5008115;28;20212;-81
2022/10/23 04:31:29;;;;;;;1.10;1.00;;;;;;;19.44;63.45;96121.66;5001343;28;20274;-81
2022/10/23 04:33:56;;;;;;;2.08;0.90;;;;;;;19.38;65.99;96112.69;5007810;28;20276;-81
2022/10/23 04:36:31;;;;;;;1.30;1.20;;;;;;;19.23;64.88;96110.91;4988526;28;20200;-81
2022/10/23 04:39:09;;;;;;;1.83;1.10;;;;;;;19.27;67.05;96133.06;4995209;28;20196;-81
2022/10/23 04:41:37;;;;;;;2.58;1.23;;;;;;;19.04;67.54;96109.22;5001748;28;20255;-81
2022/10/23 04:44:04;;;;;;;3.28;0.95;;;;;;;19.02;68.77;96133.31;4988341;28;20233;-80
2022/10/23 04:46:33;;;;;;;3.03;1.10;;;;;;;19.35;64.59;96118.72;4987517;28;20208;-80
2022/10/23 04:49:00;;;;;;;1.13;1.02;;;;;;;19.62;63.11;96113.50;5008060;28;20208;-80
2022/10/23 04:51:45;;;;;;;1.73;1.10;;;;;;;19.61;63.17;96106.41;4990150;28;20635;-81
2022/10/23 04:54:37;;;;;;;2.25;1.38;;;;;;;19.75;63.55;96111.97;4992021;28;20251;-81
2022/10/23 04:57:22;;;;;;;1.13;1.02;;;;;;;19.45;65.76;96115.88;5008236;28;20223;-81
2022/10/23 05:00:16;;;;;;;1.13;1.03;;;;;;;19.29;67.31;96108.94;4991825;28;20220;-80
2022/10/23 05:02:48;;;;;;;1.55;1.40;;;;;;;19.21;66.55;96112.31;5004649;28;20207;-81
2022/10/23 05:05:17;;;;;;;1.53;1.20;;;;;;;19.42;66.12;96108.25;5000265;28;20236;-80
2022/10/23 05:07:57;;;;;;;2.57;1.20;;;;;;;19.38;65.27;96111.88;4994028;28;20285;-81
2022/10/23 05:10:36;;;;;;;1.83;1.30;;;;;;;19.63;63.35;96095.97;4986647;28;20228;-81
2022/10/23 05:13:11;;;;;;;1.92;1.50;;;;;;;19.81;63.73;96101.78;4990928;28;20196;-80
2022/10/23 05:15:39;;;;;;;1.38;1.10;;;;;;;19.37;66.11;96111.03;5023007;28;20196;-80
2022/10/23 05:18:13;;;;;;;2.03;1.17;;;;;;;19.23;67.00;96110.09;4993873;28;20235;-81
2022/10/23 05:20:41;;;;;;;1.38;1.27;;;;;;;19.36;65.18;96105.84;4990351;28;20204;-81
2022/10/23 05:23:13;;;;;;;3.10;1.40;;;;;;;19.63;63.96;96106.94;4991265;28;20210;-81
2022/10/23 05:25:44;;;;;;;1.70;1.27;;;;;;;19.80;63.05;96105.63;4995194;28;20220;-81
2022/10/23 05:28:15;;;;;;;2.97;1.30;;;;;;;19.82;63.45;96117.09;5006303;28;20208;-81
2022/10/23 05:30:43;;;;;;;1.90;1.30;;;;;;;19.72;63.55;96106.28;4997245;28;20206;-81
2022/10/23 05:33:11;;;;;;;2.03;1.30;;;;;;;19.89;62.41;96115.63;4988436;28;20204;-81
2022/10/23 05:35:44;;;;;;;2.65;1.25;;;;;;;19.93;63.06;96124.88;4998299;28;20215;-81
2022/10/23 05:38:14;;;;;;;1.40;1.20;;;;;;;19.54;65.65;96122.38;4986499;28;20212;-80
2022/10/23 05:40:44;;;;;;;1.53;1.33;;;;;;;19.30;66.87;96120.72;4992138;28;20208;-81
2022/10/23 05:43:16;;;;;;;1.67;1.30;;;;;;;19.26;67.02;96125.94;4988602;28;20207;-81
2022/10/23 05:45:53;;;;;;;3.77;1.30;;;;;;;19.33;66.79;96120.94;4994420;28;20228;-81
2022/10/23 05:48:40;;;;;;;1.63;1.20;;;;;;;19.42;64.48;96124.66;4984884;28;20204;-81
2022/10/23 05:51:22;;;;;;;2.90;1.40;;;;;;;19.58;64.38;96112.44;4996632;28;20208;-81
2022/10/23 05:53:55;;;;;;;2.28;1.60;;;;;;;19.88;62.09;96124.13;4976423;28;20201;-81
2022/10/23 05:56:47;;;;;;;2.50;1.42;;;;;;;19.79;63.88;96134.13;4989127;28;20232;-81
2022/10/23 05:59:22;;;;;;;2.15;1.33;;;;;;;19.68;64.30;96130.69;4997100;28;20204;-81
2022/10/23 06:01:53;;;;;;;2.13;1.48;;;;;;;19.60;63.98;96137.63;4987902;28;20239;-81
2022/10/23 06:04:34;;;;;;;2.72;1.48;;;;;;;19.47;68.16;96149.31;4988380;28;20258;-81
2022/10/23 06:07:39;;;;;;;2.63;1.08;;;;;;;18.84;76.52;96141.16;4978011;28;20204;-81
2022/10/23 06:10:08;;;;;;;2.25;1.30;;;;;;;18.01;87.92;96154.03;4997250;28;20248;-81
2022/10/23 06:12:41;;;;;;;2.95;1.20;;;;;;;16.99;97.63;96154.38;5005933;28;20196;-81
2022/10/23 06:15:13;;;;;;;6.77;1.50;;;;;;;16.28;100.00;96169.88;5005289;28;20192;-81
2022/10/23 06:18:09;;;;;;;5.20;1.20;;;;;;;15.63;100.00;96171.38;4991692;28;20227;-81
2022/10/23 06:20:43;;;;;;;3.57;1.27;;;;;;;15.37;100.00;96177.75;5005761;28;20204;-81
2022/10/23 06:23:17;;;;;;;1.90;1.50;;;;;;;15.10;100.00;96172.41;5009906;28;20285;-80
2022/10/23 06:26:03;;;;;;;1.97;1.20;;;;;;;14.80;100.00;96181.19;4991985;28;20278;-80
2022/10/23 06:28:43;;;;;;;3.33;1.50;;;;;;;14.45;100.00;96189.06;5002924;28;20208;-80
2022/10/23 06:31:12;;;;;;;5.87;1.43;;;;;;;14.32;100.00;96187.56;4988543;28;20210;-81
2022/10/23 06:33:40;;;;;;;1.97;1.10;;;;;;;14.23;100.00;96178.22;4982154;28;20215;-80
2022/10/23 06:36:09;;;;;;;1.40;1.30;;;;;;;14.35;100.00;96163.41;4981418;28;20204;-81
2022/10/23 06:38:39;;;;;;;3.57;1.50;;;;;;;14.46;100.00;96185.28;4989363;28;20208;-80
2022/10/23 06:41:11;;;;;;;2.90;1.20;;;;;;;14.20;100.00;96181.47;4982462;28;20219;-80
2022/10/23 06:43:38;;;;;;;6.20;1.60;;;;;;;13.96;100.00;96189.09;4990232;28;20192;-80
2022/10/23 06:46:19;;;;;;;1.90;1.70;;;;;;;13.82;100.00;96174.28;4987975;28;20224;-81
2022/10/23 06:49:18;;;;;;;9.50;1.60;;;;;;;13.78;100.00;96165.81;4989113;28;20207;-80
2022/10/23 06:51:48;;;;;;;4.53;1.50;;;;;;;13.79;100.00;96172.88;5004503;28;20295;-80
2022/10/23 06:54:17;;;;;;;2.97;1.50;;;;;;;13.72;100.00;96174.16;4989176;28;20209;-80
2022/10/23 06:56:50;;;;;;;3.83;1.47;;;;;;;13.59;100.00;96181.63;4995970;28;20207;-80
2022/10/23 06:59:31;;;;;;;4.03;1.57;;;;;;;13.49;100.00;96186.94;4994034;28;20199;-80
2022/10/23 07:01:59;;;;;;;4.30;1.73;;;;;;;13.47;100.00;96163.84;4986267;28;20235;-82
2022/10/23 07:04:26;;;;;;;3.77;1.60;;;;;;;13.49;100.00;96173.38;5002235;28;20295;-83
2022/10/23 07:06:56;;;;;;;3.90;1.33;;;;;;;13.51;100.00;96163.09;4995840;28;20196;-83
2022/10/23 07:09:28;;;;;;;3.47;1.60;;;;;;;13.57;100.00;96166.69;4991752;28;20192;-83
2022/10/23 07:11:55;;;;;;;4.20;1.80;;;;;;;13.68;100.00;96178.47;4988560;28;20212;-83
2022/10/23 07:14:30;;;;;;;2.40;1.30;;;;;;;15.18;100.00;96168.38;5000042;28;20264;-82
2022/10/23 07:17:00;;;;;;;1.77;1.50;;;;;;;16.79;92.77;96167.22;5004266;28;20288;-82
2022/10/23 07:19:29;;;;;;;4.90;1.40;;;;;;;16.76;100.00;96184.13;4986762;28;20215;-83
2022/10/23 07:21:58;;;;;;;2.73;1.70;;;;;;;16.01;100.00;96169.28;4986156;28;20208;-83
2022/10/23 07:24:37;;;;;;;2.47;1.60;;;;;;;15.30;100.00;96163.56;5008492;28;20215;-82
2022/10/23 07:27:13;;;;;;;3.33;1.50;;;;;;;15.28;100.00;96168.44;4987972;28;20259;-82
2022/10/23 07:29:41;;;;;;;1.53;1.43;;;;;;;16.49;93.66;96155.22;4991179;28;20208;-82
2022/10/23 07:32:09;;;;;;;2.70;1.57;;;;;;;18.08;79.11;96179.13;4985575;28;20204;-81
2022/10/23 07:34:55;;;;;;;1.73;1.20;;;;;;;19.65;68.79;96175.09;4984867;28;20211;-81
2022/10/23 07:37:31;;;;;;;2.27;1.53;;;;;;;20.28;64.58;96175.63;4983965;28;20211;-80
2022/10/23 07:40:01;;;;;;;1.75;1.40;;;;;;;20.45;66.72;96180.63;5004403;28;20311;-80
2022/10/23 07:42:28;;;;;;;3.45;1.80;;;;;;;20.19;68.50;96166.44;4997079;28;20207;-80
2022/10/23 07:44:55;;;;;;;1.40;1.30;;;;;;;20.46;63.61;96159.50;5009425;28;20220;-80
2022/10/23 07:47:24;;;;;;;1.85;1.33;;;;;;;20.91;60.82;96156.03;4984420;28;20298;-80
2022/10/23 07:49:52;;;;;;;2.00;1.50;;;;;;;20.97;61.58;96148.53;5006114;28;20207;-80
2022/10/23 07:52:21;;;;;;;1.90;1.60;;;;;;;21.04;61.11;96152.50;4996442;28;20208;-80
2022/10/23 07:55:07;;;;;;;2.40;1.30;;;;;;;21.59;56.97;96163.63;4985849;28;20196;-81
2022/10/23 07:57:38;;;;;;;1.70;1.35;;;;;;;21.77;55.91;96143.47;4992021;28;20200;-80
2022/10/23 08:00:17;;;;;;;1.65;1.20;;;;;;;21.98;55.20;96143.88;4987314;28;20204;-81
2022/10/23 08:02:56;;;;;;;2.65;1.33;;;;;;;22.09;54.98;96141.72;5004843;28;20239;-81
2022/10/23 08:05:23;;;;;;;2.28;1.25;;;;;;;22.10;55.47;96146.09;4983403;28;20235;-80
2022/10/23 08:07:57;;;;;;;1.15;1.05;;;;;;;22.04;56.19;96156.38;4999995;28;20193;-80
2022/10/23 08:10:24;;;;;;;2.22;1.48;;;;;;;22.07;55.69;96150.28;4996542;28;20235;-80
2022/10/23 08:12:51;;;;;;;1.80;1.38;;;;;;;21.95;56.97;96160.16;5007119;28;20243;-80
2022/10/23 08:15:21;;;;;;;3.40;2.50;;;;;;;21.82;57.37;96159.84;5004805;28;20240;-80
2022/10/23 08:17:58;;;;;;;1.52;1.25;;;;;;;21.75;57.83;96148.44;4983336;28;20343;-80
2022/10/23 08:20:39;;;;;;;2.47;1.40;;;;;;;21.88;56.54;96147.63;4981278;28;20200;-80
2022/10/23 08:23:06;;;;;;;2.20;1.00;;;;;;;21.92;56.74;96158.00;4988059;28;20243;-80
2022/10/23 08:25:34;;;;;;;1.52;1.30;;;;;;;22.02;56.09;96152.34;4977669;28;20227;-80
2022/10/23 08:28:01;;;;;;;1.20;1.10;;;;;;;22.09;55.09;96158.22;5002240;28;20204;-80
2022/10/23 08:30:28;;;;;;;2.15;1.10;;;;;;;21.97;56.85;96150.50;4985429;28;20201;-80
2022/10/23 08:32:55;;;;;;;1.90;1.20;;;;;;;21.94;56.09;96150.28;4984072;28;20209;-80
2022/10/23 08:35:24;;;;;;;1.17;1.08;;;;;;;22.20;54.38;96143.91;4983289;28;20285;-80
2022/10/23 08:37:51;;;;;;;2.90;1.02;;;;;;;22.36;53.73;96144.41;4990843;28;20208;-80
2022/10/23 08:40:23;;;;;;;1.75;1.17;;;;;;;22.51;52.99;96154.25;5005049;28;20224;-80
2022/10/23 08:43:16;;;;;;;1.23;1.13;;;;;;;22.69;52.00;96149.69;4987267;28;20228;-81
2022/10/23 08:46:01;;;;;;;1.88;1.30;;;;;;;22.78;51.08;96145.91;5006285;28;20219;-81
2022/10/23 08:48:51;;;;;;;1.13;1.00;;;;;;;22.79;52.47;96152.25;5000710;28;20192;-82
2022/10/23 08:51:44;;;;;;;2.88;1.30;;;;;;;22.73;53.30;96140.50;4990960;28;20216;-80
2022/10/23 08:54:15;;;;;;;3.60;1.30;;;;;;;22.84;51.59;96141.09;4989588;28;20220;-80
2022/10/23 08:56:47;;;;;;;2.08;1.27;;;;;;;22.91;51.82;96142.28;4991786;28;20296;-80
2022/10/23 08:59:21;;;;;;;1.55;1.13;;;;;;;23.15;50.22;96147.44;4987010;28;20244;-81
2022/10/23 09:01:53;;;;;;;2.45;1.30;;;;;;;23.16;51.07;96123.47;5004394;28;20258;-80
2022/10/23 09:04:21;;;;;;;2.33;1.10;;;;;;;23.23;49.98;96146.66;4995354;28;20212;-80
2022/10/23 09:06:57;;;;;;;2.78;1.40;;;;;;;23.26;49.61;96137.78;4990458;28;20228;-81
2022/10/23 09:09:41;;;;;;;2.65;1.40;;;;;;;23.29;50.39;96136.34;4985931;28;20260;-82
2022/10/23 09:12:12;;;;;;;2.67;1.50;;;;;;;23.23;50.17;96121.88;4989943;28;20299;-82
2022/10/23 09:15:10;;;;;;;2.50;1.40;;;;;;;23.32;48.17;96119.97;5002562;28;20258;-81
2022/10/23 09:17:39;;;;;;;2.63;1.30;;;;;;;23.49;48.52;96129.47;4985335;28;20212;-82
2022/10/23 09:20:15;;;;;;;2.55;1.40;;;;;;;23.62;47.37;96131.34;4993485;28;20239;-82
2022/10/23 09:22:45;;;;;;;3.33;1.40;;;;;;;23.69;47.81;96131.69;4990068;28;20200;-82
2022/10/23 09:25:18;;;;;;;3.47;1.35;;;;;;;23.64;48.54;96134.59;4989411;28;20204;-82
2022/10/23 09:27:47;;;;;;;3.15;1.52;;;;;;;23.50;50.17;96134.69;4993658;28;20200;-82
2022/10/23 09:30:25;;;;;;;3.08;1.48;;;;;;;23.50;48.96;96136.63;4992722;28;20203;-82
2022/10/23 09:32:52;;;;;;;5.65;2.00;;;;;;;23.49;48.49;96157.84;4988253;28;20208;-82
2022/10/23 09:35:24;;;;;;;3.28;1.98;;;;;;;23.52;48.87;96148.97;4988940;28;20204;-82
2022/10/23 09:37:53;;;;;;;7.38;2.08;;;;;;;23.48;49.23;96147.16;5004621;28;20315;-82
2022/10/23 09:40:28;;;;;;;3.03;1.52;;;;;;;23.37;49.95;96144.66;5005184;28;20204;-82
2022/10/23 09:42:58;;;;;;;2.58;1.50;;;;;;;23.47;49.00;96131.75;5006513;28;20207;-82
2022/10/23 09:45:29;;;;;;;3.78;1.70;;;;;;;23.54;48.89;96151.41;4989013;28;20227;-82
2022/10/23 09:48:12;;;;;;;4.80;1.45;;;;;;;23.51;49.74;96152.03;4982059;28;20200;-81
2022/10/23 09:50:47;;;;;;;5.78;1.77;;;;;;;23.43;49.48;96139.81;4982310;28;20204;-82
2022/10/23 09:53:18;;;;;;;2.58;1.80;;;;;;;23.38;49.92;96140.78;4986360;28;20302;-81
2022/10/23 09:55:53;;;;;;;3.20;1.50;;;;;;;23.47;49.98;96127.03;4986344;28;20212;-81
2022/10/23 09:58:24;;;;;;;3.10;1.73;;;;;;;23.43;50.88;96139.00;4990181;28;20214;-82
2022/10/23 10:00:51;;;;;;;3.20;1.58;;;;;;;23.37;52.39;96139.16;4998095;28;20266;-82
2022/10/23 10:03:21;;;;;;;3.85;2.00;;;;;;;23.36;51.36;96128.44;5007963;28;20207;-81
2022/10/23 10:06:04;;;;;;;3.65;1.70;;;;;;;23.55;50.22;96140.06;4986958;28;20259;-82
2022/10/23 10:08:44;;;;;;;2.63;1.60;;;;;;;23.63;49.50;96139.28;4983214;28;20200;-82
2022/10/23 10:11:17;;;;;;;5.28;2.28;;;;;;;23.66;49.29;96116.59;4992824;28;20228;-82
2022/10/23 10:13:57;;;;;;;8.15;2.00;;;;;;;23.59;49.71;96134.72;4989251;28;20208;-82
2022/10/23 10:16:33;;;;;;;5.70;2.00;;;;;;;23.59;50.11;96141.03;4982474;28;20257;-82
2022/10/23 10:19:06;;;;;;;4.82;2.05;;;;;;;23.42;51.24;96145.63;4997677;28;20206;-82
2022/10/23 10:21:40;;;;;;;5.70;2.03;;;;;;;23.53;49.26;96147.84;4993054;28;20292;-81
2022/10/23 10:24:15;;;;;;;5.88;1.80;;;;;;;23.74;49.25;96164.59;4979334;28;20216;-81
2022/10/23 10:26:49;;;;;;;4.18;1.92;;;;;;;23.73;51.10;96146.47;4982468;28;20311;-82
2022/10/23 10:29:28;;;;;;;5.40;2.03;;;;;;;23.73;48.92;96138.97;4977931;28;20204;-81
2022/10/23 10:32:06;;;;;;;6.43;2.25;;;;;;;23.93;47.99;96156.09;5000876;28;20293;-82
2022/10/23 10:34:43;;;;;;;4.75;1.80;;;;;;;24.05;48.90;96148.81;4990104;28;20215;-82
2022/10/23 10:37:21;;;;;;;7.88;2.20;;;;;;;24.01;47.63;96144.25;5001916;28;20227;-82
2022/10/23 10:40:00;;;;;;;8.02;2.10;;;;;;;24.07;48.18;96145.75;4988114;28;20223;-82
2022/10/23 10:42:42;;;;;;;5.53;1.80;;;;;;;24.10;47.92;96145.09;4984643;28;20211;-82
2022/10/23 10:45:19;;;;;;;3.35;1.90;;;;;;;24.06;48.05;96144.94;4985195;28;20223;-82
2022/10/23 10:47:59;;;;;;;4.80;2.00;;;;;;;24.21;47.73;96134.59;4987867;28;20278;-82
2022/10/23 10:50:39;;;;;;;7.22;1.92;;;;;;;24.30;47.85;96116.94;5002235;28;20209;-82
2022/10/23 10:53:24;;;;;;;5.28;1.80;;;;;;;24.37;45.18;96113.69;4990398;28;20205;-82
2022/10/23 10:55:55;;;;;;;4.10;1.77;;;;;;;24.55;44.92;96120.03;4985250;28;20196;-82
2022/10/23 10:58:31;;;;;;;4.63;1.92;;;;;;;24.61;44.57;96133.31;5006244;28;20200;-82
2022/10/23 11:01:02;;;;;;;5.68;2.00;;;;;;;24.58;45.18;96131.22;4990524;28;20257;-82
2022/10/23 11:03:38;;;;;;;5.90;2.10;;;;;;;24.40;46.75;96118.56;4997280;28;20295;-82
2022/10/23 11:06:12;;;;;;;6.10;1.90;;;;;;;24.33;45.96;96132.03;4999738;28;20271;-82
2022/10/23 11:08:41;;;;;;;8.38;1.90;;;;;;;24.33;46.18;96121.78;4990025;28;20223;-82
2022/10/23 11:11:14;;;;;;;6.80;2.00;;;;;;;24.25;46.49;96116.25;5005570;28;20243;-81
2022/10/23 11:13:43;;;;;;;5.30;2.33;;;;;;;24.36;45.08;96114.81;4987274;28;20204;-82
2022/10/23 11:16:14;;;;;;;4.22;2.22;;;;;;;24.30;46.86;96138.19;4990279;28;20286;-82
2022/10/23 11:18:46;;;;;;;7.45;2.03;;;;;;;24.30;45.54;96121.63;4985926;28;20228;-81
2022/10/23 11:21:26;;;;;;;7.35;2.45;;;;;;;24.24;46.83;96117.41;4989034;28;20223;-82
2022/10/23 11:24:06;;;;;;;6.70;1.90;;;;;;;24.31;46.33;96112.22;4985455;28;20215;-83
2022/10/23 11:26:45;;;;;;;6.47;2.28;;;;;;;;;;4996094;28;20263;-82
2022/10/23 11:29:40;;;;;;;3.63;2.15;;;;;;;24.29;45.80;96120.81;4985258;28;20223;-81
2022/10/23 11:32:35;;;;;;;6.78;2.05;;;;;;;24.30;46.74;96116.13;4945659;28;20207;-81
2022/10/23 11:35:19;;;;;;;8.18;2.20;;;;;;;24.24;47.96;96125.69;4994306;28;20204;-82
2022/10/23 11:37:58;;;;;;;4.50;1.95;;;;;;;24.09;49.07;96143.47;4989331;28;20211;-81
2022/10/23 11:40:26;;;;;;;6.22;1.95;;;;;;;24.17;47.03;96120.59;4988478;28;20215;-81
2022/10/23 11:42:54;;;;;;;5.50;1.67;;;;;;;24.28;46.39;96126.66;4989421;28;20215;-82
2022/10/23 11:45:35;;;;;;;5.55;2.05;;;;;;;24.28;46.60;96121.13;4987910;28;20212;-82
2022/10/23 11:48:04;;;;;;;11.32;2.75;;;;;;;24.35;45.83;96124.22;5002938;28;20232;-82
2022/10/23 11:50:34;;;;;;;5.72;2.00;;;;;;;24.30;46.64;96105.88;4988716;28;20219;-82
2022/10/23 11:53:09;;;;;;;7.32;2.10;;;;;;;24.13;48.08;96105.84;4985562;28;20255;-82
2022/10/23 11:55:37;;;;;;;8.10;2.22;;;;;;;24.11;46.82;96097.06;5004155;28;20211;-82
2022/10/23 11:58:22;;;;;;;7.47;2.83;;;;;;;24.09;46.62;96111.19;4990361;28;20200;-82
2022/10/23 12:00:58;;;;;;;9.20;2.90;;;;;;;24.10;46.77;96107.28;4985477;28;20196;-82